HomeShort term forecast

Short term forecast

Graphical weather forecast for the next 48 hours for Montreal:

Short term forecast

This weather forecast is automatically refreshed every 3 hours.

Hourly Experimental Forecast for the next 48 hours

Overall summary: Partly cloudy throughout the day.

 Date & Hour   Temp   Feel   Baro   Hum   Speed & Bearing   Wind Gust   Precip.%   Precip.   Visibility   Cloud cover   Conditions 
 25/01/2021 - 00:00  -15.0°C  -22.2°C  1020.3 hPa  77%  12.9 km/h   24.1 km/h  0%  --  16.1km  1%  Clear 
 25/01/2021 - 01:00  -15.2°C  -21.8°C  1020.7 hPa  77%  11.1 km/h   21.0 km/h  1%  0.04 mm/h  16.1km  6%  Clear 
 25/01/2021 - 02:00  -15.6°C  -22.1°C  1020.4 hPa  78%  10.5 km/h   20.3 km/h  0%  --  16.1km  7%  Clear 
 25/01/2021 - 03:00  -16.0°C  -22.4°C  1021.0 hPa  78%  9.9 km/h   19.1 km/h  1%  0.02 mm/h  16.1km  11%  Clear 
 25/01/2021 - 04:00  -16.4°C  -22.9°C  1021.0 hPa  79%  10.0 km/h   19.0 km/h  0%  --  16.1km  12%  Clear 
 25/01/2021 - 05:00  -16.8°C  -23.3°C  1020.9 hPa  80%  9.7 km/h   17.6 km/h  0%  --  16.1km  15%  Clear 
 25/01/2021 - 06:00  -17.0°C  -23.7°C  1020.9 hPa  80%  10.3 km/h   18.1 km/h  0%  --  16.1km  29%  Clear 
 25/01/2021 - 07:00  -16.6°C  -23.0°C  1020.7 hPa  80%  9.8 km/h   19.7 km/h  0%  --  16.1km  31%  Partly Cloudy 
 25/01/2021 - 08:00  -15.8°C  -22.0°C  1020.8 hPa  80%  9.6 km/h   19.6 km/h  0%  --  16.1km  55%  Partly Cloudy 
 25/01/2021 - 09:00  -13.9°C  -19.9°C  1020.9 hPa  77%  10.0 km/h   22.3 km/h  0%  --  16.1km  68%  Mostly Cloudy 
 25/01/2021 - 10:00  -12.3°C  -18.4°C  1021.2 hPa  78%  11.1 km/h   19.1 km/h  3%  0.04 mm/h  16.1km  53%  Partly Cloudy 
 25/01/2021 - 11:00  -10.7°C  -16.6°C  1020.7 hPa  77%  11.6 km/h   19.5 km/h  0%  --  16.1km  54%  Partly Cloudy 
 25/01/2021 - 12:00  -9.7°C  -15.3°C  1019.7 hPa  78%  11.4 km/h   16.6 km/h  0%  --  16.1km  54%  Partly Cloudy 
 25/01/2021 - 13:00  -8.5°C  -14.2°C  1019.3 hPa  76%  12.4 km/h   18.6 km/h  0%  --  16.1km  48%  Partly Cloudy 
 25/01/2021 - 14:00  -7.6°C  -12.8°C  1019.2 hPa  74%  11.6 km/h   18.3 km/h  0%  --  16.1km  37%  Partly Cloudy 
 25/01/2021 - 15:00  -7.0°C  -11.8°C  1019.2 hPa  75%  10.5 km/h   17.0 km/h  0%  --  16.1km  32%  Partly Cloudy 
 25/01/2021 - 16:00  -7.3°C  -12.0°C  1019.4 hPa  77%  10.0 km/h   18.4 km/h  0%  --  16.1km  29%  Clear 
 25/01/2021 - 17:00  -8.1°C  -12.9°C  1019.5 hPa  79%  9.7 km/h   19.0 km/h  0%  --  16.1km  31%  Clear 
 25/01/2021 - 18:00  -9.2°C  -14.0°C  1019.8 hPa  82%  9.3 km/h   16.6 km/h  0%  --  16.1km  33%  Partly Cloudy 
 25/01/2021 - 19:00  -9.7°C  -15.0°C  1020.4 hPa  84%  10.5 km/h   23.1 km/h  0%  --  16.1km  34%  Partly Cloudy 
 25/01/2021 - 20:00  -10.0°C  -15.1°C  1020.5 hPa  84%  9.5 km/h   17.6 km/h  0%  --  16.1km  45%  Partly Cloudy 
 25/01/2021 - 21:00  -10.2°C  -14.9°C  1020.5 hPa  85%  8.5 km/h   14.0 km/h  0%  --  16.1km  57%  Partly Cloudy 
 25/01/2021 - 22:00  -10.4°C  -14.5°C  1020.6 hPa  85%  7.2 km/h   10.4 km/h  0%  --  16.1km  68%  Mostly Cloudy 
 25/01/2021 - 23:00  -10.7°C  -14.3°C  1020.5 hPa  84%  6.0 km/h   8.9 km/h  0%  --  16.0km  70%  Mostly Cloudy 
 26/01/2021 - 00:00  -11.1°C  -14.1°C  1020.4 hPa  84%  5.0 km/h   8.1 km/h  0%  --  14.1km  70%  Mostly Cloudy 
 26/01/2021 - 01:00  -11.4°C  -11.4°C  1020.3 hPa  83%  3.6 km/h   6.1 km/h  0%  --  12.8km  66%  Mostly Cloudy 
 26/01/2021 - 02:00  -11.9°C  -11.9°C  1020.0 hPa  82%  3.4 km/h   4.9 km/h  0%  --  12.5km  73%  Mostly Cloudy 
 26/01/2021 - 03:00  -12.8°C  -12.8°C  1019.8 hPa  82%  4.1 km/h   4.7 km/h  0%  --  13.6km  73%  Mostly Cloudy 
 26/01/2021 - 04:00  -13.5°C  -13.5°C  1019.6 hPa  80%  4.4 km/h   4.4 km/h  0%  --  12.6km  71%  Mostly Cloudy 
 26/01/2021 - 05:00  -14.5°C  -14.5°C  1020.0 hPa  80%  4.6 km/h   5.0 km/h  0%  --  10.9km  44%  Partly Cloudy 
 26/01/2021 - 06:00  -15.4°C  -15.4°C  1019.9 hPa  82%  4.7 km/h   6.1 km/h  0%  --  13.6km  69%  Mostly Cloudy 
 26/01/2021 - 07:00  -15.8°C  -19.6°C  1020.2 hPa  84%  5.1 km/h   7.2 km/h  0%  --  14.8km  77%  Mostly Cloudy 
 26/01/2021 - 08:00  -15.3°C  -19.4°C  1020.2 hPa  84%  5.8 km/h   7.8 km/h  0%  --  12.7km  84%  Mostly Cloudy 
 26/01/2021 - 09:00  -14.1°C  -18.4°C  1020.3 hPa  84%  6.5 km/h   9.3 km/h  0%  --  15.2km  79%  Mostly Cloudy 
 26/01/2021 - 10:00  -12.6°C  -17.1°C  1020.3 hPa  85%  7.2 km/h   10.1 km/h  2%  0.01 mm/h  16.1km  76%  Mostly Cloudy 
 26/01/2021 - 11:00  -11.1°C  -15.8°C  1019.5 hPa  84%  8.3 km/h   12.0 km/h  0%  --  16.1km  79%  Mostly Cloudy 
 26/01/2021 - 12:00  -9.8°C  -14.6°C  1018.6 hPa  83%  9.0 km/h   13.5 km/h  0%  --  16.1km  85%  Mostly Cloudy 
 26/01/2021 - 13:00  -8.6°C  -13.5°C  1017.9 hPa  81%  10.1 km/h   16.2 km/h  0%  --  15.9km  90%  Overcast 
 26/01/2021 - 14:00  -7.8°C  -12.8°C  1017.3 hPa  78%  10.5 km/h   17.3 km/h  0%  --  16.1km  94%  Overcast 
 26/01/2021 - 15:00  -7.2°C  -12.2°C  1016.9 hPa  77%  10.8 km/h   19.7 km/h  0%  --  16.1km  96%  Overcast 
 26/01/2021 - 16:00  -7.5°C  -12.5°C  1016.7 hPa  78%  11.0 km/h   21.0 km/h  0%  --  16.1km  97%  Overcast 
 26/01/2021 - 17:00  -8.1°C  -13.5°C  1016.7 hPa  81%  11.8 km/h   23.9 km/h  0%  --  16.1km  97%  Overcast 
 26/01/2021 - 18:00  -8.8°C  -14.5°C  1016.8 hPa  83%  12.3 km/h   26.5 km/h  0%  --  16.1km  96%  Overcast 
 26/01/2021 - 19:00  -9.0°C  -14.9°C  1017.1 hPa  84%  12.6 km/h   28.1 km/h  3%  0.01 mm/h  16.1km  95%  Overcast 
 26/01/2021 - 20:00  -9.0°C  -15.0°C  1016.9 hPa  84%  12.9 km/h   29.1 km/h  4%  0.04 mm/h  16.1km  93%  Overcast 
 26/01/2021 - 21:00  -8.7°C  -14.7°C  1016.5 hPa  85%  13.5 km/h   29.2 km/h  8%  0.18 mm/h  16.1km  92%  Overcast 
 26/01/2021 - 22:00  -8.4°C  -14.5°C  1016.3 hPa  84%  13.8 km/h   28.5 km/h  8%  0.21 mm/h  10.5km  91%  Overcast 
 26/01/2021 - 23:00  -8.3°C  -14.4°C  1016.2 hPa  82%  14.4 km/h   28.7 km/h  7%  0.22 mm/h  9.2km  92%  Overcast 

 

Past weather and reports

Past weatherFind in this section the past weather conditions, weather archive, graphics, reports and statistics.

Current conditions

Current weather condition for MontrealAll you need to know about the current weather conditions for Montreal. Weather data is updated every 10 minutes.

Weather forecast

Current Montreal weatherSince 2004, celinium.com website has provided accurate weather forecast for Montreal's island.